sensor_id;sensor_type;location;lat;lon;timestamp;temperature;humidity
52107;DHT22;38105;52.968;5.974;2023-04-15T00:02:16;6.10;99.90
52107;DHT22;38105;52.968;5.974;2023-04-15T00:04:44;6.00;99.90
52107;DHT22;38105;52.968;5.974;2023-04-15T00:07:10;6.00;99.90
52107;DHT22;38105;52.968;5.974;2023-04-15T00:09:36;6.00;99.90
52107;DHT22;38105;52.968;5.974;2023-04-15T00:12:01;5.90;99.90
52107;DHT22;38105;52.968;5.974;2023-04-15T00:14:27;6.00;99.90
52107;DHT22;38105;52.968;5.974;2023-04-15T00:16:53;5.90;99.90
52107;DHT22;38105;52.968;5.974;2023-04-15T00:19:20;5.90;99.90
52107;DHT22;38105;52.968;5.974;2023-04-15T00:21:46;5.90;99.90
52107;DHT22;38105;52.968;5.974;2023-04-15T00:24:12;5.80;99.90
52107;DHT22;38105;52.968;5.974;2023-04-15T00:26:38;5.90;99.90
52107;DHT22;38105;52.968;5.974;2023-04-15T00:29:05;5.80;99.90
52107;DHT22;38105;52.968;5.974;2023-04-15T00:31:31;5.80;99.90
52107;DHT22;38105;52.968;5.974;2023-04-15T00:33:57;5.80;99.90
52107;DHT22;38105;52.968;5.974;2023-04-15T00:36:23;5.70;99.90
52107;DHT22;38105;52.968;5.974;2023-04-15T00:38:49;5.70;99.90
52107;DHT22;38105;52.968;5.974;2023-04-15T00:41:14;5.70;99.90
52107;DHT22;38105;52.968;5.974;2023-04-15T00:43:40;5.60;99.90
52107;DHT22;38105;52.968;5.974;2023-04-15T00:46:06;5.60;99.90
52107;DHT22;38105;52.968;5.974;2023-04-15T00:48:34;5.60;99.90
52107;DHT22;38105;52.968;5.974;2023-04-15T00:51:00;5.60;99.90
52107;DHT22;38105;52.968;5.974;2023-04-15T00:53:26;5.50;99.90
52107;DHT22;38105;52.968;5.974;2023-04-15T00:55:53;5.50;99.90
52107;DHT22;38105;52.968;5.974;2023-04-15T00:58:18;5.50;99.90
52107;DHT22;38105;52.968;5.974;2023-04-15T01:00:44;5.50;99.90
52107;DHT22;38105;52.968;5.974;2023-04-15T01:03:11;5.50;99.90
52107;DHT22;38105;52.968;5.974;2023-04-15T01:05:37;5.50;99.90
52107;DHT22;38105;52.968;5.974;2023-04-15T01:08:04;5.50;99.90
52107;DHT22;38105;52.968;5.974;2023-04-15T01:10:30;5.50;99.90
52107;DHT22;38105;52.968;5.974;2023-04-15T01:12:56;5.40;99.90
52107;DHT22;38105;52.968;5.974;2023-04-15T01:15:22;5.50;99.90
52107;DHT22;38105;52.968;5.974;2023-04-15T01:17:48;5.50;99.90
52107;DHT22;38105;52.968;5.974;2023-04-15T01:20:15;5.40;99.90
52107;DHT22;38105;52.968;5.974;2023-04-15T01:22:41;5.40;99.90
52107;DHT22;38105;52.968;5.974;2023-04-15T01:25:12;5.40;99.90
52107;DHT22;38105;52.968;5.974;2023-04-15T01:27:41;5.40;99.90
52107;DHT22;38105;52.968;5.974;2023-04-15T01:30:10;5.40;99.90
52107;DHT22;38105;52.968;5.974;2023-04-15T01:32:36;5.30;99.90
52107;DHT22;38105;52.968;5.974;2023-04-15T01:35:01;5.30;99.90
52107;DHT22;38105;52.968;5.974;2023-04-15T01:37:28;5.40;99.90
52107;DHT22;38105;52.968;5.974;2023-04-15T01:39:54;5.30;99.90
52107;DHT22;38105;52.968;5.974;2023-04-15T01:42:20;5.30;99.90
52107;DHT22;38105;52.968;5.974;2023-04-15T01:44:46;5.30;99.90
52107;DHT22;38105;52.968;5.974;2023-04-15T01:47:12;5.40;99.90
52107;DHT22;38105;52.968;5.974;2023-04-15T01:49:38;5.30;99.90
52107;DHT22;38105;52.968;5.974;2023-04-15T01:52:04;5.20;99.90
52107;DHT22;38105;52.968;5.974;2023-04-15T01:54:29;5.10;99.90
52107;DHT22;38105;52.968;5.974;2023-04-15T01:56:55;5.10;99.90
52107;DHT22;38105;52.968;5.974;2023-04-15T01:59:21;5.10;99.90
52107;DHT22;38105;52.968;5.974;2023-04-15T02:01:47;5.20;99.90
52107;DHT22;38105;52.968;5.974;2023-04-15T02:04:13;5.10;99.90
52107;DHT22;38105;52.968;5.974;2023-04-15T02:06:43;5.10;99.90
52107;DHT22;38105;52.968;5.974;2023-04-15T02:09:09;5.10;99.90
52107;DHT22;38105;52.968;5.974;2023-04-15T02:11:35;5.10;99.90
52107;DHT22;38105;52.968;5.974;2023-04-15T02:14:02;5.10;99.90
52107;DHT22;38105;52.968;5.974;2023-04-15T02:16:32;5.00;99.90
52107;DHT22;38105;52.968;5.974;2023-04-15T02:18:59;5.00;99.90
52107;DHT22;38105;52.968;5.974;2023-04-15T02:21:25;5.00;99.90
52107;DHT22;38105;52.968;5.974;2023-04-15T02:23:51;4.90;99.90
52107;DHT22;38105;52.968;5.974;2023-04-15T02:26:18;4.90;99.90
52107;DHT22;38105;52.968;5.974;2023-04-15T02:28:45;4.90;99.90
52107;DHT22;38105;52.968;5.974;2023-04-15T02:31:11;5.00;99.90
52107;DHT22;38105;52.968;5.974;2023-04-15T02:33:36;5.00;99.90
52107;DHT22;38105;52.968;5.974;2023-04-15T02:36:02;5.00;99.90
52107;DHT22;38105;52.968;5.974;2023-04-15T02:38:28;4.90;99.90
52107;DHT22;38105;52.968;5.974;2023-04-15T02:40:55;4.90;99.90
52107;DHT22;38105;52.968;5.974;2023-04-15T02:43:21;4.80;99.90
52107;DHT22;38105;52.968;5.974;2023-04-15T02:45:47;4.80;99.90
52107;DHT22;38105;52.968;5.974;2023-04-15T02:48:13;4.80;99.90
52107;DHT22;38105;52.968;5.974;2023-04-15T02:50:39;4.80;99.90
52107;DHT22;38105;52.968;5.974;2023-04-15T02:53:05;4.70;99.90
52107;DHT22;38105;52.968;5.974;2023-04-15T02:55:31;4.80;99.90
52107;DHT22;38105;52.968;5.974;2023-04-15T02:57:57;4.80;99.90
52107;DHT22;38105;52.968;5.974;2023-04-15T03:00:25;4.70;99.90
52107;DHT22;38105;52.968;5.974;2023-04-15T03:02:51;4.70;99.90
52107;DHT22;38105;52.968;5.974;2023-04-15T03:05:21;4.60;99.90
52107;DHT22;38105;52.968;5.974;2023-04-15T03:07:50;4.60;99.90
52107;DHT22;38105;52.968;5.974;2023-04-15T03:10:16;4.60;99.90
52107;DHT22;38105;52.968;5.974;2023-04-15T03:12:42;4.70;99.90
52107;DHT22;38105;52.968;5.974;2023-04-15T03:15:08;4.70;99.90
52107;DHT22;38105;52.968;5.974;2023-04-15T03:17:34;4.50;99.90
52107;DHT22;38105;52.968;5.974;2023-04-15T03:20:04;4.60;99.90
52107;DHT22;38105;52.968;5.974;2023-04-15T03:22:33;4.60;99.90
52107;DHT22;38105;52.968;5.974;2023-04-15T03:24:58;4.50;99.90
52107;DHT22;38105;52.968;5.974;2023-04-15T03:27:24;4.50;99.90
52107;DHT22;38105;52.968;5.974;2023-04-15T03:29:50;4.50;99.90
52107;DHT22;38105;52.968;5.974;2023-04-15T03:32:16;4.40;99.90
52107;DHT22;38105;52.968;5.974;2023-04-15T03:34:42;4.60;99.90
52107;DHT22;38105;52.968;5.974;2023-04-15T03:37:08;4.40;99.90
52107;DHT22;38105;52.968;5.974;2023-04-15T03:39:34;4.50;99.90
52107;DHT22;38105;52.968;5.974;2023-04-15T03:42:00;4.40;99.90
52107;DHT22;38105;52.968;5.974;2023-04-15T03:44:26;4.40;99.90
52107;DHT22;38105;52.968;5.974;2023-04-15T03:46:52;4.50;99.90
52107;DHT22;38105;52.968;5.974;2023-04-15T03:49:18;4.40;99.90
52107;DHT22;38105;52.968;5.974;2023-04-15T03:51:44;4.50;99.90
52107;DHT22;38105;52.968;5.974;2023-04-15T03:54:10;4.40;99.90
52107;DHT22;38105;52.968;5.974;2023-04-15T03:56:37;4.40;99.90
52107;DHT22;38105;52.968;5.974;2023-04-15T03:59:02;4.30;99.90
52107;DHT22;38105;52.968;5.974;2023-04-15T04:01:28;4.20;99.90
52107;DHT22;38105;52.968;5.974;2023-04-15T04:03:54;4.30;99.90
52107;DHT22;38105;52.968;5.974;2023-04-15T04:06:20;4.20;99.90
52107;DHT22;38105;52.968;5.974;2023-04-15T04:08:46;4.20;99.90
52107;DHT22;38105;52.968;5.974;2023-04-15T04:11:12;4.30;99.90
52107;DHT22;38105;52.968;5.974;2023-04-15T04:13:37;4.10;99.90
52107;DHT22;38105;52.968;5.974;2023-04-15T04:16:03;4.10;99.90
52107;DHT22;38105;52.968;5.974;2023-04-15T04:18:30;4.20;99.90
52107;DHT22;38105;52.968;5.974;2023-04-15T04:20:56;4.10;99.90
52107;DHT22;38105;52.968;5.974;2023-04-15T04:23:22;4.20;99.90
52107;DHT22;38105;52.968;5.974;2023-04-15T04:25:48;4.00;99.90
52107;DHT22;38105;52.968;5.974;2023-04-15T04:28:13;4.00;99.90
52107;DHT22;38105;52.968;5.974;2023-04-15T04:30:39;3.90;99.90
52107;DHT22;38105;52.968;5.974;2023-04-15T04:33:06;4.00;99.90
52107;DHT22;38105;52.968;5.974;2023-04-15T04:35:31;4.00;99.90
52107;DHT22;38105;52.968;5.974;2023-04-15T04:38:00;4.00;99.90
52107;DHT22;38105;52.968;5.974;2023-04-15T04:40:25;4.00;99.90
52107;DHT22;38105;52.968;5.974;2023-04-15T04:42:52;4.00;99.90
52107;DHT22;38105;52.968;5.974;2023-04-15T04:45:18;4.00;99.90
52107;DHT22;38105;52.968;5.974;2023-04-15T04:47:44;4.00;99.90
52107;DHT22;38105;52.968;5.974;2023-04-15T04:50:09;3.90;99.90
52107;DHT22;38105;52.968;5.974;2023-04-15T04:52:36;4.00;99.90
52107;DHT22;38105;52.968;5.974;2023-04-15T04:55:01;4.00;99.90
52107;DHT22;38105;52.968;5.974;2023-04-15T04:57:27;4.00;99.90
52107;DHT22;38105;52.968;5.974;2023-04-15T04:59:53;4.00;99.90
52107;DHT22;38105;52.968;5.974;2023-04-15T05:02:19;4.00;99.90
52107;DHT22;38105;52.968;5.974;2023-04-15T05:04:44;4.00;99.90
52107;DHT22;38105;52.968;5.974;2023-04-15T05:07:10;4.10;99.90
52107;DHT22;38105;52.968;5.974;2023-04-15T05:09:36;4.20;99.90
52107;DHT22;38105;52.968;5.974;2023-04-15T05:12:03;4.40;99.90
52107;DHT22;38105;52.968;5.974;2023-04-15T05:14:29;5.00;99.90
52107;DHT22;38105;52.968;5.974;2023-04-15T05:16:55;5.60;99.90
52107;DHT22;38105;52.968;5.974;2023-04-15T05:19:21;6.40;99.90
52107;DHT22;38105;52.968;5.974;2023-04-15T05:21:46;7.10;99.90
52107;DHT22;38105;52.968;5.974;2023-04-15T05:24:12;7.70;99.90
52107;DHT22;38105;52.968;5.974;2023-04-15T05:26:38;7.90;99.90
52107;DHT22;38105;52.968;5.974;2023-04-15T05:29:03;7.90;99.90
52107;DHT22;38105;52.968;5.974;2023-04-15T05:31:29;7.90;99.90
52107;DHT22;38105;52.968;5.974;2023-04-15T05:33:55;8.20;99.90
52107;DHT22;38105;52.968;5.974;2023-04-15T05:36:20;8.60;99.90
52107;DHT22;38105;52.968;5.974;2023-04-15T05:38:46;9.10;99.90
52107;DHT22;38105;52.968;5.974;2023-04-15T05:41:12;9.30;99.90
52107;DHT22;38105;52.968;5.974;2023-04-15T05:43:40;9.30;99.90
52107;DHT22;38105;52.968;5.974;2023-04-15T05:46:05;9.70;99.90
52107;DHT22;38105;52.968;5.974;2023-04-15T05:48:31;10.20;99.90
52107;DHT22;38105;52.968;5.974;2023-04-15T05:50:57;10.70;99.90
52107;DHT22;38105;52.968;5.974;2023-04-15T05:53:23;11.40;99.90
52107;DHT22;38105;52.968;5.974;2023-04-15T05:55:48;12.20;99.90
52107;DHT22;38105;52.968;5.974;2023-04-15T05:58:14;12.70;99.90
52107;DHT22;38105;52.968;5.974;2023-04-15T06:00:40;12.90;99.90
52107;DHT22;38105;52.968;5.974;2023-04-15T06:03:06;13.10;99.90
52107;DHT22;38105;52.968;5.974;2023-04-15T06:05:32;13.00;99.90
52107;DHT22;38105;52.968;5.974;2023-04-15T06:07:58;13.20;99.90
52107;DHT22;38105;52.968;5.974;2023-04-15T06:10:24;13.20;99.90
52107;DHT22;38105;52.968;5.974;2023-04-15T06:12:52;13.50;99.90
52107;DHT22;38105;52.968;5.974;2023-04-15T06:15:17;13.80;99.90
52107;DHT22;38105;52.968;5.974;2023-04-15T06:17:44;13.70;99.90
52107;DHT22;38105;52.968;5.974;2023-04-15T06:20:10;13.40;99.90
52107;DHT22;38105;52.968;5.974;2023-04-15T06:22:36;13.40;99.90
52107;DHT22;38105;52.968;5.974;2023-04-15T06:25:03;13.60;99.90
52107;DHT22;38105;52.968;5.974;2023-04-15T06:27:29;13.40;99.90
52107;DHT22;38105;52.968;5.974;2023-04-15T06:29:55;13.20;99.90
52107;DHT22;38105;52.968;5.974;2023-04-15T06:32:21;13.30;99.90
52107;DHT22;38105;52.968;5.974;2023-04-15T06:34:46;13.40;99.90
52107;DHT22;38105;52.968;5.974;2023-04-15T06:37:12;13.50;99.90
52107;DHT22;38105;52.968;5.974;2023-04-15T06:39:41;14.20;99.90
52107;DHT22;38105;52.968;5.974;2023-04-15T06:42:07;14.60;99.90
52107;DHT22;38105;52.968;5.974;2023-04-15T06:44:33;14.90;99.90
52107;DHT22;38105;52.968;5.974;2023-04-15T06:46:59;14.50;99.90
52107;DHT22;38105;52.968;5.974;2023-04-15T06:49:25;14.00;99.90
52107;DHT22;38105;52.968;5.974;2023-04-15T06:51:51;14.00;99.90
52107;DHT22;38105;52.968;5.974;2023-04-15T06:54:17;13.60;99.90
52107;DHT22;38105;52.968;5.974;2023-04-15T06:56:42;13.40;99.90
52107;DHT22;38105;52.968;5.974;2023-04-15T06:59:08;13.20;99.90
52107;DHT22;38105;52.968;5.974;2023-04-15T07:01:34;13.50;99.90
52107;DHT22;38105;52.968;5.974;2023-04-15T07:04:00;13.50;99.90
52107;DHT22;38105;52.968;5.974;2023-04-15T07:06:26;14.10;99.90
52107;DHT22;38105;52.968;5.974;2023-04-15T07:08:52;14.50;99.90
52107;DHT22;38105;52.968;5.974;2023-04-15T07:11:18;14.60;99.90
52107;DHT22;38105;52.968;5.974;2023-04-15T07:13:45;14.60;99.90
52107;DHT22;38105;52.968;5.974;2023-04-15T07:16:11;14.90;99.90
52107;DHT22;38105;52.968;5.974;2023-04-15T07:18:36;14.90;99.90
52107;DHT22;38105;52.968;5.974;2023-04-15T07:21:02;15.00;99.90
52107;DHT22;38105;52.968;5.974;2023-04-15T07:23:28;14.80;99.90
52107;DHT22;38105;52.968;5.974;2023-04-15T07:25:54;15.10;99.90
52107;DHT22;38105;52.968;5.974;2023-04-15T07:28:19;15.40;99.90
52107;DHT22;38105;52.968;5.974;2023-04-15T07:30:45;15.30;99.90
52107;DHT22;38105;52.968;5.974;2023-04-15T07:33:11;15.00;99.90
52107;DHT22;38105;52.968;5.974;2023-04-15T07:35:36;14.90;99.90
52107;DHT22;38105;52.968;5.974;2023-04-15T07:38:02;14.60;99.90
52107;DHT22;38105;52.968;5.974;2023-04-15T07:40:28;14.30;99.90
52107;DHT22;38105;52.968;5.974;2023-04-15T07:42:55;14.10;99.90
52107;DHT22;38105;52.968;5.974;2023-04-15T07:45:21;13.80;99.90
52107;DHT22;38105;52.968;5.974;2023-04-15T07:47:47;13.60;99.90
52107;DHT22;38105;52.968;5.974;2023-04-15T07:50:13;13.30;99.90
52107;DHT22;38105;52.968;5.974;2023-04-15T07:52:39;13.30;99.90
52107;DHT22;38105;52.968;5.974;2023-04-15T07:55:06;13.10;99.90
52107;DHT22;38105;52.968;5.974;2023-04-15T07:57:35;12.80;99.90
52107;DHT22;38105;52.968;5.974;2023-04-15T08:00:02;12.70;99.90
52107;DHT22;38105;52.968;5.974;2023-04-15T08:02:30;12.60;99.90
52107;DHT22;38105;52.968;5.974;2023-04-15T08:04:56;12.40;99.90
52107;DHT22;38105;52.968;5.974;2023-04-15T08:07:22;12.50;99.90
52107;DHT22;38105;52.968;5.974;2023-04-15T08:09:48;12.80;99.90
52107;DHT22;38105;52.968;5.974;2023-04-15T08:12:14;13.00;99.90
52107;DHT22;38105;52.968;5.974;2023-04-15T08:14:40;13.00;99.90
52107;DHT22;38105;52.968;5.974;2023-04-15T08:17:06;13.20;99.90
52107;DHT22;38105;52.968;5.974;2023-04-15T08:19:32;13.40;99.90
52107;DHT22;38105;52.968;5.974;2023-04-15T08:21:57;13.70;99.90
52107;DHT22;38105;52.968;5.974;2023-04-15T08:24:25;14.10;99.90
52107;DHT22;38105;52.968;5.974;2023-04-15T08:26:51;14.10;99.90
52107;DHT22;38105;52.968;5.974;2023-04-15T08:29:17;14.30;99.90
52107;DHT22;38105;52.968;5.974;2023-04-15T08:31:42;14.20;99.90
52107;DHT22;38105;52.968;5.974;2023-04-15T08:34:10;13.80;99.90
52107;DHT22;38105;52.968;5.974;2023-04-15T08:36:36;14.00;99.90
52107;DHT22;38105;52.968;5.974;2023-04-15T08:39:02;13.90;99.90
52107;DHT22;38105;52.968;5.974;2023-04-15T08:41:40;13.60;99.90
52107;DHT22;38105;52.968;5.974;2023-04-15T08:44:08;13.50;99.90
52107;DHT22;38105;52.968;5.974;2023-04-15T08:46:33;13.20;99.90
52107;DHT22;38105;52.968;5.974;2023-04-15T08:48:59;13.00;99.90
52107;DHT22;38105;52.968;5.974;2023-04-15T08:51:28;12.60;99.90
52107;DHT22;38105;52.968;5.974;2023-04-15T08:53:54;12.50;99.90
52107;DHT22;38105;52.968;5.974;2023-04-15T08:56:23;12.30;99.90
52107;DHT22;38105;52.968;5.974;2023-04-15T08:58:49;12.20;99.90
52107;DHT22;38105;52.968;5.974;2023-04-15T09:01:15;12.10;99.90
52107;DHT22;38105;52.968;5.974;2023-04-15T09:03:41;12.00;99.90
52107;DHT22;38105;52.968;5.974;2023-04-15T09:06:07;12.10;99.90
52107;DHT22;38105;52.968;5.974;2023-04-15T09:08:33;12.00;99.90
52107;DHT22;38105;52.968;5.974;2023-04-15T09:11:01;11.90;99.90
52107;DHT22;38105;52.968;5.974;2023-04-15T09:13:27;11.90;99.90
52107;DHT22;38105;52.968;5.974;2023-04-15T09:15:53;12.10;99.90
52107;DHT22;38105;52.968;5.974;2023-04-15T09:18:30;12.00;99.90
52107;DHT22;38105;52.968;5.974;2023-04-15T09:21:06;12.00;99.90
52107;DHT22;38105;52.968;5.974;2023-04-15T09:23:34;11.90;99.90
52107;DHT22;38105;52.968;5.974;2023-04-15T09:26:03;12.00;99.90
52107;DHT22;38105;52.968;5.974;2023-04-15T09:28:29;12.20;99.90
52107;DHT22;38105;52.968;5.974;2023-04-15T09:30:56;12.20;99.90
52107;DHT22;38105;52.968;5.974;2023-04-15T09:33:22;12.50;99.90
52107;DHT22;38105;52.968;5.974;2023-04-15T09:35:58;12.70;99.90
52107;DHT22;38105;52.968;5.974;2023-04-15T09:38:24;12.50;99.90
52107;DHT22;38105;52.968;5.974;2023-04-15T09:40:50;12.10;99.90
52107;DHT22;38105;52.968;5.974;2023-04-15T09:43:16;12.10;99.90
52107;DHT22;38105;52.968;5.974;2023-04-15T09:45:53;11.90;99.90
52107;DHT22;38105;52.968;5.974;2023-04-15T09:48:23;11.80;99.90
52107;DHT22;38105;52.968;5.974;2023-04-15T09:50:54;11.80;99.90
52107;DHT22;38105;52.968;5.974;2023-04-15T09:53:23;11.70;99.90
52107;DHT22;38105;52.968;5.974;2023-04-15T09:55:57;11.90;99.90
52107;DHT22;38105;52.968;5.974;2023-04-15T09:58:23;11.90;99.90
52107;DHT22;38105;52.968;5.974;2023-04-15T10:00:51;12.10;99.90
52107;DHT22;38105;52.968;5.974;2023-04-15T10:03:31;12.70;99.90
52107;DHT22;38105;52.968;5.974;2023-04-15T10:05:59;13.40;99.90
52107;DHT22;38105;52.968;5.974;2023-04-15T10:08:31;13.70;99.90
52107;DHT22;38105;52.968;5.974;2023-04-15T10:10:57;13.40;99.90
52107;DHT22;38105;52.968;5.974;2023-04-15T10:13:25;13.20;99.90
52107;DHT22;38105;52.968;5.974;2023-04-15T10:16:00;13.40;99.90
52107;DHT22;38105;52.968;5.974;2023-04-15T10:18:33;13.70;99.90
52107;DHT22;38105;52.968;5.974;2023-04-15T10:21:00;13.90;99.90
52107;DHT22;38105;52.968;5.974;2023-04-15T10:23:26;13.90;99.90
52107;DHT22;38105;52.968;5.974;2023-04-15T10:25:52;14.00;99.90
52107;DHT22;38105;52.968;5.974;2023-04-15T10:28:21;13.60;99.90
52107;DHT22;38105;52.968;5.974;2023-04-15T10:30:50;13.60;99.90
52107;DHT22;38105;52.968;5.974;2023-04-15T10:33:20;13.60;99.90
52107;DHT22;38105;52.968;5.974;2023-04-15T10:35:47;13.70;99.90
52107;DHT22;38105;52.968;5.974;2023-04-15T10:38:40;13.90;99.90
52107;DHT22;38105;52.968;5.974;2023-04-15T10:41:17;14.00;99.90
52107;DHT22;38105;52.968;5.974;2023-04-15T10:44:01;14.00;99.90
52107;DHT22;38105;52.968;5.974;2023-04-15T10:46:41;13.70;99.90
52107;DHT22;38105;52.968;5.974;2023-04-15T10:49:11;13.20;99.90
52107;DHT22;38105;52.968;5.974;2023-04-15T10:51:42;13.10;99.90
52107;DHT22;38105;52.968;5.974;2023-04-15T10:54:12;12.90;99.90
52107;DHT22;38105;52.968;5.974;2023-04-15T10:56:43;12.80;99.90
52107;DHT22;38105;52.968;5.974;2023-04-15T10:59:09;12.60;99.90
52107;DHT22;38105;52.968;5.974;2023-04-15T11:01:55;12.40;99.90
52107;DHT22;38105;52.968;5.974;2023-04-15T11:04:56;12.40;99.90
52107;DHT22;38105;52.968;5.974;2023-04-15T11:07:39;12.20;99.90
52107;DHT22;38105;52.968;5.974;2023-04-15T11:12:45;12.30;99.90
52107;DHT22;38105;52.968;5.974;2023-04-15T11:15:40;12.30;99.90
52107;DHT22;38105;52.968;5.974;2023-04-15T11:18:20;12.30;99.90
52107;DHT22;38105;52.968;5.974;2023-04-15T11:20:50;12.30;99.90
52107;DHT22;38105;52.968;5.974;2023-04-15T11:23:41;12.20;99.90
52107;DHT22;38105;52.968;5.974;2023-04-15T11:26:14;11.90;99.90
52107;DHT22;38105;52.968;5.974;2023-04-15T11:28:42;12.10;99.90
52107;DHT22;38105;52.968;5.974;2023-04-15T11:31:15;12.20;99.90
52107;DHT22;38105;52.968;5.974;2023-04-15T11:33:46;12.10;99.90
52107;DHT22;38105;52.968;5.974;2023-04-15T11:36:17;11.90;99.90
52107;DHT22;38105;52.968;5.974;2023-04-15T11:38:45;11.90;99.90
52107;DHT22;38105;52.968;5.974;2023-04-15T11:41:11;11.80;99.90
52107;DHT22;38105;52.968;5.974;2023-04-15T11:43:37;11.60;99.90
52107;DHT22;38105;52.968;5.974;2023-04-15T11:46:03;11.60;99.90
52107;DHT22;38105;52.968;5.974;2023-04-15T11:48:31;11.50;99.90
52107;DHT22;38105;52.968;5.974;2023-04-15T11:51:01;11.40;99.90
52107;DHT22;38105;52.968;5.974;2023-04-15T11:53:42;11.30;99.90
52107;DHT22;38105;52.968;5.974;2023-04-15T11:56:10;11.40;99.90
52107;DHT22;38105;52.968;5.974;2023-04-15T11:58:40;11.30;99.90
52107;DHT22;38105;52.968;5.974;2023-04-15T12:01:07;11.30;99.90
52107;DHT22;38105;52.968;5.974;2023-04-15T12:06:19;11.20;99.90
52107;DHT22;38105;52.968;5.974;2023-04-15T12:11:21;11.10;99.90
52107;DHT22;38105;52.968;5.974;2023-04-15T12:14:02;11.00;99.90
52107;DHT22;38105;52.968;5.974;2023-04-15T12:16:29;11.00;99.90
52107;DHT22;38105;52.968;5.974;2023-04-15T12:18:56;10.90;99.90
52107;DHT22;38105;52.968;5.974;2023-04-15T12:21:24;10.90;99.90
52107;DHT22;38105;52.968;5.974;2023-04-15T12:23:52;10.90;99.90
52107;DHT22;38105;52.968;5.974;2023-04-15T12:26:28;11.10;99.90
52107;DHT22;38105;52.968;5.974;2023-04-15T12:29:05;11.20;99.90
52107;DHT22;38105;52.968;5.974;2023-04-15T12:31:32;11.10;99.90
52107;DHT22;38105;52.968;5.974;2023-04-15T12:33:58;11.00;99.90
52107;DHT22;38105;52.968;5.974;2023-04-15T12:36:25;10.90;99.90
52107;DHT22;38105;52.968;5.974;2023-04-15T12:38:50;10.80;99.90
52107;DHT22;38105;52.968;5.974;2023-04-15T12:41:16;10.70;99.90
52107;DHT22;38105;52.968;5.974;2023-04-15T12:43:44;10.70;99.90
52107;DHT22;38105;52.968;5.974;2023-04-15T12:46:10;10.70;99.90
52107;DHT22;38105;52.968;5.974;2023-04-15T12:48:35;10.70;99.90
52107;DHT22;38105;52.968;5.974;2023-04-15T12:51:01;10.80;99.90
52107;DHT22;38105;52.968;5.974;2023-04-15T12:53:27;10.60;99.90
52107;DHT22;38105;52.968;5.974;2023-04-15T12:55:53;10.60;99.90
52107;DHT22;38105;52.968;5.974;2023-04-15T12:58:18;10.70;99.90
52107;DHT22;38105;52.968;5.974;2023-04-15T13:00:44;10.60;99.90
52107;DHT22;38105;52.968;5.974;2023-04-15T13:03:10;10.60;99.90
52107;DHT22;38105;52.968;5.974;2023-04-15T13:05:37;10.60;99.90
52107;DHT22;38105;52.968;5.974;2023-04-15T13:08:03;10.50;99.90
52107;DHT22;38105;52.968;5.974;2023-04-15T13:10:29;10.60;99.90
52107;DHT22;38105;52.968;5.974;2023-04-15T13:12:56;10.50;99.90
52107;DHT22;38105;52.968;5.974;2023-04-15T13:15:22;10.60;99.90
52107;DHT22;38105;52.968;5.974;2023-04-15T13:17:48;10.50;99.90
52107;DHT22;38105;52.968;5.974;2023-04-15T13:20:14;10.50;99.90
52107;DHT22;38105;52.968;5.974;2023-04-15T13:22:40;10.50;99.90
52107;DHT22;38105;52.968;5.974;2023-04-15T13:25:06;10.40;99.90
52107;DHT22;38105;52.968;5.974;2023-04-15T13:27:32;10.30;99.90
52107;DHT22;38105;52.968;5.974;2023-04-15T13:29:58;10.40;99.90
52107;DHT22;38105;52.968;5.974;2023-04-15T13:32:24;10.30;99.90
52107;DHT22;38105;52.968;5.974;2023-04-15T13:34:50;10.30;99.90
52107;DHT22;38105;52.968;5.974;2023-04-15T13:37:16;10.30;99.90
52107;DHT22;38105;52.968;5.974;2023-04-15T13:39:42;10.40;99.90
52107;DHT22;38105;52.968;5.974;2023-04-15T13:42:07;10.40;99.90
52107;DHT22;38105;52.968;5.974;2023-04-15T13:44:33;10.40;99.90
52107;DHT22;38105;52.968;5.974;2023-04-15T13:47:00;10.40;99.90
52107;DHT22;38105;52.968;5.974;2023-04-15T13:49:25;10.20;99.90
52107;DHT22;38105;52.968;5.974;2023-04-15T13:51:51;10.30;99.90
52107;DHT22;38105;52.968;5.974;2023-04-15T13:54:16;10.30;99.90
52107;DHT22;38105;52.968;5.974;2023-04-15T13:56:42;10.40;99.90
52107;DHT22;38105;52.968;5.974;2023-04-15T13:59:08;10.50;99.90
52107;DHT22;38105;52.968;5.974;2023-04-15T14:01:34;10.60;99.90
52107;DHT22;38105;52.968;5.974;2023-04-15T14:04:00;10.60;99.90
52107;DHT22;38105;52.968;5.974;2023-04-15T14:06:27;10.70;99.90
52107;DHT22;38105;52.968;5.974;2023-04-15T14:08:55;10.60;99.90
52107;DHT22;38105;52.968;5.974;2023-04-15T14:11:21;10.60;99.90
52107;DHT22;38105;52.968;5.974;2023-04-15T14:13:47;10.50;99.90
52107;DHT22;38105;52.968;5.974;2023-04-15T14:16:12;10.50;99.90
52107;DHT22;38105;52.968;5.974;2023-04-15T14:18:39;10.60;99.90
52107;DHT22;38105;52.968;5.974;2023-04-15T14:21:05;10.40;99.90
52107;DHT22;38105;52.968;5.974;2023-04-15T14:23:31;10.40;99.90
52107;DHT22;38105;52.968;5.974;2023-04-15T14:25:57;10.40;99.90
52107;DHT22;38105;52.968;5.974;2023-04-15T14:28:23;10.30;99.90
52107;DHT22;38105;52.968;5.974;2023-04-15T14:30:49;10.20;99.90
52107;DHT22;38105;52.968;5.974;2023-04-15T14:33:14;10.20;99.90
52107;DHT22;38105;52.968;5.974;2023-04-15T14:35:40;10.30;99.90
52107;DHT22;38105;52.968;5.974;2023-04-15T14:38:06;10.30;99.90
52107;DHT22;38105;52.968;5.974;2023-04-15T14:40:35;10.40;99.90
52107;DHT22;38105;52.968;5.974;2023-04-15T14:43:00;10.40;99.90
52107;DHT22;38105;52.968;5.974;2023-04-15T14:45:26;10.40;99.90
52107;DHT22;38105;52.968;5.974;2023-04-15T14:47:52;10.40;99.90
52107;DHT22;38105;52.968;5.974;2023-04-15T14:50:18;10.40;99.90
52107;DHT22;38105;52.968;5.974;2023-04-15T14:52:43;10.30;99.90
52107;DHT22;38105;52.968;5.974;2023-04-15T14:55:11;10.20;99.90
52107;DHT22;38105;52.968;5.974;2023-04-15T14:57:38;10.20;99.90
52107;DHT22;38105;52.968;5.974;2023-04-15T15:00:05;10.30;99.90
52107;DHT22;38105;52.968;5.974;2023-04-15T15:02:32;10.30;99.90
52107;DHT22;38105;52.968;5.974;2023-04-15T15:05:00;10.20;99.90
52107;DHT22;38105;52.968;5.974;2023-04-15T15:07:26;10.20;99.90
52107;DHT22;38105;52.968;5.974;2023-04-15T15:09:52;10.10;99.90
52107;DHT22;38105;52.968;5.974;2023-04-15T15:12:18;10.00;99.90
52107;DHT22;38105;52.968;5.974;2023-04-15T15:14:44;10.10;99.90
52107;DHT22;38105;52.968;5.974;2023-04-15T15:17:09;10.10;99.90
52107;DHT22;38105;52.968;5.974;2023-04-15T15:19:35;10.00;99.90
52107;DHT22;38105;52.968;5.974;2023-04-15T15:22:02;10.00;99.90
52107;DHT22;38105;52.968;5.974;2023-04-15T15:24:28;9.90;99.90
52107;DHT22;38105;52.968;5.974;2023-04-15T15:26:54;9.90;99.90
52107;DHT22;38105;52.968;5.974;2023-04-15T15:29:19;9.90;99.90
52107;DHT22;38105;52.968;5.974;2023-04-15T15:31:45;9.90;99.90
52107;DHT22;38105;52.968;5.974;2023-04-15T15:34:10;9.90;99.90
52107;DHT22;38105;52.968;5.974;2023-04-15T15:36:36;9.70;99.90
52107;DHT22;38105;52.968;5.974;2023-04-15T15:39:02;9.70;99.90
52107;DHT22;38105;52.968;5.974;2023-04-15T15:41:28;9.80;99.90
52107;DHT22;38105;52.968;5.974;2023-04-15T15:43:54;9.70;99.90
52107;DHT22;38105;52.968;5.974;2023-04-15T15:46:19;9.70;99.90